KNQA/NQA METAR and TAF weather

Enter ICAO airport designator
Station Type Date Time Source
KNQA METAR 2022/01/26 07:50 UTC NOAA

KNQA 260750Z 03010KT 10SM CLR M05/M12 A3042


Station Type Date Time Source
KNQA Decoded METAR 2022/01/26 07:50 UTC NOAA

Millington, Millington Municipal Airport, TN, United States (KNQA) 35-21-24N 089-52-13W
Jan 26, 2022 - 02:50 AM EST / 2022.01.26 0750 UTC
Wind: from the NNE (030 degrees) at 12 MPH (10 KT):0
Visibility: 10 mile(s):0
Sky conditions: clear
Temperature: 23 F (-5 C)
Windchill: 12 F (-11 C):1
Dew Point: 10 F (-12 C)
Relative Humidity: 57%
Pressure (altimeter): 30.42 in. Hg (1030 hPa)
ob: KNQA 260750Z 03010KT 10SM CLR M05/M12 A3042
cycle: 8

Station Type Date Time Source
KNQA TAF UTC NOAA

Error!

Example: see airport list